Time;durP1;ratioP1;P1;durP2;ratioP2;P2;SDS_P1;SDS_P2;PMS_P1;PMS_P2;Temp;Humidity;BMP_temperature;BMP_pressure;BME280_temperature;BME280_humidity;BME280_pressure;Samples;Min_cycle;Max_cycle;Signal;HPM_P1;HPM_P2
2023/02/01 00:00:41;;;;;;;28.20;3.67;;;;;;;-146.25;78.92;52441.19;2087940;28;39236;-72
2023/02/01 00:01:44;;;;;;;21.45;2.35;;;;;;;-146.25;79.29;52471.59;2088446;28;20054;-72
2023/02/01 00:02:48;;;;;;;25.40;3.00;;;;;;;-146.25;78.94;52495.94;2088580;28;29598;-71
2023/02/01 00:03:50;;;;;;;27.88;3.15;;;;;;;-146.25;79.42;52439.16;2087955;28;37474;-71
2023/02/01 00:04:51;;;;;;;24.98;2.97;;;;;;;-146.25;79.74;52483.78;2088393;28;36023;-72
2023/02/01 00:05:58;;;;;;;26.52;2.60;;;;;;;-146.25;79.12;52483.78;2088199;28;38926;-72
2023/02/01 00:07:01;;;;;;;27.60;3.40;;;;;;;-146.25;79.24;52467.56;2087801;28;38956;-72
2023/02/01 00:08:02;;;;;;;24.05;2.72;;;;;;;-146.25;79.04;52424.97;2087834;28;20045;-72
2023/02/01 00:09:07;;;;;;;26.98;3.72;;;;;;;-146.25;79.63;52455.38;2088815;28;21011;-72
2023/02/01 00:10:10;;;;;;;24.38;2.50;;;;;;;-146.25;79.51;52443.22;2088131;28;37993;-71
2023/02/01 00:11:12;;;;;;;20.60;2.55;;;;;;;-146.25;79.65;52451.31;2087645;28;38336;-72
2023/02/01 00:12:14;;;;;;;24.10;2.63;;;;;;;-146.25;79.30;52469.56;2088854;28;20037;-72
2023/02/01 00:13:16;;;;;;;26.80;2.60;;;;;;;-146.25;79.50;52433.06;2088265;28;32373;-71
2023/02/01 00:14:18;;;;;;;22.63;2.67;;;;;;;-146.25;78.80;52481.75;2087942;28;25377;-71
2023/02/01 00:15:23;;;;;;;27.95;2.80;;;;;;;-146.25;79.08;52449.31;2087936;28;40158;-72
2023/02/01 00:16:28;;;;;;;21.65;3.00;;;;;;;-146.25;79.05;52459.44;2087935;28;38522;-73
2023/02/01 00:17:30;;;;;;;22.50;3.05;;;;;;;-146.25;79.00;52457.41;2088146;28;37817;-73
2023/02/01 00:18:32;;;;;;;21.08;2.70;;;;;;;-146.25;78.71;52465.53;2087922;28;31857;-73
2023/02/01 00:19:34;;;;;;;22.45;2.90;;;;;;;-146.25;78.74;52441.19;2088227;28;38621;-71
2023/02/01 00:20:36;;;;;;;26.63;2.88;;;;;;;-146.25;79.14;52424.97;2087963;28;40384;-71
2023/02/01 00:21:38;;;;;;;19.42;2.70;;;;;;;-146.25;78.78;52493.91;2088108;28;36096;-72
2023/02/01 00:22:40;;;;;;;27.15;2.63;;;;;;;-146.25;78.72;52447.28;2087769;28;40659;-73
2023/02/01 00:23:42;;;;;;;28.08;3.20;;;;;;;-146.25;78.70;52451.31;2088438;28;24354;-73
2023/02/01 00:24:44;;;;;;;28.13;3.25;;;;;;;-146.25;79.30;52463.50;2087337;28;42190;-73
2023/02/01 00:25:46;;;;;;;27.42;2.40;;;;;;;-146.25;79.78;52453.34;2088149;28;37397;-73
2023/02/01 00:26:48;;;;;;;17.38;2.58;;;;;;;-146.25;79.68;52504.03;2087722;28;34651;-73
2023/02/01 00:27:51;;;;;;;23.20;2.53;;;;;;;-146.25;80.01;52469.56;2088591;28;20046;-73
2023/02/01 00:28:53;;;;;;;25.30;3.38;;;;;;;-146.25;79.24;52429.03;2088062;28;23305;-73
2023/02/01 00:29:57;;;;;;;26.90;3.00;;;;;;;-146.25;79.39;52400.63;2088410;28;27149;-73
2023/02/01 00:31:04;;;;;;;26.48;3.75;;;;;;;-146.25;79.09;52427.00;2088691;28;20046;-72
2023/02/01 00:32:05;;;;;;;22.10;2.95;;;;;;;-146.25;79.51;52455.38;2088211;28;30433;-72
2023/02/01 00:33:07;;;;;;;23.30;2.53;;;;;;;-146.25;79.53;52424.97;2087795;28;34775;-72
2023/02/01 00:34:15;;;;;;;25.58;2.97;;;;;;;-146.25;79.00;52451.31;2079855;28;31904;-72
2023/02/01 00:35:17;;;;;;;24.45;2.92;;;;;;;-146.25;78.96;52445.25;2078990;28;34783;-73
2023/02/01 00:36:18;;;;;;;25.55;3.28;;;;;;;-146.25;79.05;52453.34;2080437;28;20042;-72
2023/02/01 00:37:21;;;;;;;19.55;2.85;;;;;;;-146.25;78.89;52451.31;2088148;28;32194;-72
2023/02/01 00:38:23;;;;;;;27.05;3.05;;;;;;;-146.25;79.52;52459.44;2087866;28;29864;-72
2023/02/01 00:39:25;;;;;;;21.48;2.65;;;;;;;-146.25;79.42;52453.34;2088650;28;20072;-71
2023/02/01 00:40:27;;;;;;;24.73;2.90;;;;;;;-146.25;79.40;52467.56;2088559;28;20128;-72
2023/02/01 00:41:29;;;;;;;27.38;2.58;;;;;;;-146.25;79.26;52437.13;2088058;28;27812;-72
2023/02/01 00:42:31;;;;;;;23.55;2.42;;;;;;;-146.25;79.65;52461.47;2080152;28;20192;-72
2023/02/01 00:43:34;;;;;;;21.85;2.72;;;;;;;-146.25;80.17;52422.94;2078879;28;36495;-72
2023/02/01 00:44:36;;;;;;;20.65;2.47;;;;;;;-146.25;79.98;52439.16;2078787;28;41715;-71
2023/02/01 00:45:37;;;;;;;25.45;3.50;;;;;;;-146.25;79.35;52465.53;2079554;28;20034;-73
2023/02/01 00:46:39;;;;;;;28.17;3.63;;;;;;;-146.25;79.69;52420.91;2087075;28;41320;-72
2023/02/01 00:47:41;;;;;;;24.58;3.03;;;;;;;-146.25;79.83;52408.75;2088043;28;20176;-73
2023/02/01 00:48:42;;;;;;;26.77;3.25;;;;;;;-146.25;79.96;52463.50;2088836;28;20049;-73
2023/02/01 00:49:44;;;;;;;19.33;2.72;;;;;;;-146.25;80.06;52461.47;2088385;28;26656;-73
2023/02/01 00:50:48;;;;;;;21.40;3.15;;;;;;;-146.25;79.03;52473.63;2088594;28;21012;-70
2023/02/01 00:51:51;;;;;;;24.08;2.80;;;;;;;-146.25;79.45;52461.47;2079620;28;20605;-72
2023/02/01 00:52:52;;;;;;;22.17;2.47;;;;;;;-146.25;79.91;52465.53;2080110;28;20069;-71
2023/02/01 00:53:55;;;;;;;24.85;2.92;;;;;;;-146.25;79.75;52465.53;2087121;28;34019;-71
2023/02/01 00:54:56;;;;;;;21.38;2.55;;;;;;;-146.25;79.85;52459.44;2079023;28;34310;-72
2023/02/01 00:56:03;;;;;;;27.33;3.15;;;;;;;-146.25;80.28;52441.19;2080090;28;20042;-71
2023/02/01 00:57:04;;;;;;;24.92;2.47;;;;;;;-146.25;79.69;52451.31;2079282;28;30838;-71
2023/02/01 00:58:09;;;;;;;23.48;2.38;;;;;;;-146.25;79.63;52429.03;2079612;28;20049;-72
2023/02/01 00:59:12;;;;;;;23.02;2.45;;;;;;;-146.25;79.88;52477.69;2088114;28;20041;-71
2023/02/01 01:00:15;;;;;;;27.17;3.00;;;;;;;-146.25;79.59;52491.88;2087864;28;20986;-71
2023/02/01 01:01:23;;;;;;;25.83;3.88;;;;;;;-146.25;80.17;52412.81;2088015;28;21420;-71
2023/02/01 01:02:26;;;;;;;21.08;2.65;;;;;;;-146.25;79.89;52449.31;2088678;28;20992;-71
2023/02/01 01:03:33;;;;;;;21.73;2.40;;;;;;;-146.25;79.91;52459.44;2079514;28;20042;-71
2023/02/01 01:04:34;;;;;;;25.48;3.20;;;;;;;-146.25;79.38;52435.09;2080282;28;37665;-71
2023/02/01 01:05:36;;;;;;;27.38;2.45;;;;;;;-146.25;79.63;52473.63;2087639;28;35446;-71
2023/02/01 01:06:38;;;;;;;21.42;2.50;;;;;;;-146.25;79.39;52437.13;2086946;28;35427;-71
2023/02/01 01:07:41;;;;;;;25.98;3.28;;;;;;;-146.25;80.23;52461.47;2088084;28;20886;-71
2023/02/01 01:08:43;;;;;;;31.25;2.92;;;;;;;-146.25;80.43;52483.78;2079177;28;20038;-71
2023/02/01 01:09:45;;;;;;;20.10;2.47;;;;;;;-146.25;80.46;52437.13;2079369;28;30848;-71
2023/02/01 01:10:47;;;;;;;25.88;3.03;;;;;;;-146.25;79.53;52467.56;2087937;28;35382;-71
2023/02/01 01:11:50;;;;;;;19.27;2.50;;;;;;;-146.25;80.26;52449.31;2087548;28;37471;-71
2023/02/01 01:12:52;;;;;;;22.95;2.88;;;;;;;-146.25;80.48;52477.69;2079364;28;20139;-71
2023/02/01 01:13:56;;;;;;;26.67;2.88;;;;;;;-146.25;80.27;52465.53;2079670;28;20045;-71
2023/02/01 01:14:58;;;;;;;22.38;2.50;;;;;;;-146.25;80.17;52469.56;2087279;28;26786;-71
2023/02/01 01:16:04;;;;;;;28.67;3.08;;;;;;;-146.25;80.42;52431.06;2086931;28;36554;-72
2023/02/01 01:17:06;;;;;;;16.13;2.38;;;;;;;-146.25;79.86;52447.28;2087324;28;35064;-72
2023/02/01 01:18:09;;;;;;;23.23;2.55;;;;;;;-146.25;80.33;52491.88;2088122;28;27164;-71
2023/02/01 01:19:11;;;;;;;29.15;2.75;;;;;;;-146.25;80.76;52437.13;2088586;28;20063;-71
2023/02/01 01:20:16;;;;;;;18.05;2.45;;;;;;;-146.25;80.38;52475.66;2080022;28;20034;-72
2023/02/01 01:21:18;;;;;;;23.08;2.60;;;;;;;-146.25;80.35;52433.06;2079431;28;32840;-72
2023/02/01 01:22:20;;;;;;;23.02;2.90;;;;;;;-146.25;80.20;52447.28;2071222;28;28489;-72
2023/02/01 01:23:24;;;;;;;26.77;2.70;;;;;;;-146.25;80.50;52463.50;2063414;28;20137;-72
2023/02/01 01:24:26;;;;;;;18.38;2.75;;;;;;;-146.25;80.26;52443.22;2071769;28;20907;-72
2023/02/01 01:25:27;;;;;;;19.77;2.63;;;;;;;-146.25;81.05;52453.34;2078820;28;28830;-71
2023/02/01 01:26:30;;;;;;;23.70;2.65;;;;;;;-146.25;80.29;52461.47;2079195;28;41964;-72
2023/02/01 01:27:31;;;;;;;20.63;2.83;;;;;;;-146.25;80.48;52463.50;2079679;28;30765;-71
2023/02/01 01:28:37;;;;;;;26.10;2.95;;;;;;;-146.25;81.06;52447.28;2080175;28;20093;-71
2023/02/01 01:29:38;;;;;;;20.13;2.85;;;;;;;-146.25;80.84;52453.34;2070342;28;33219;-71
2023/02/01 01:30:40;;;;;;;23.55;3.25;;;;;;;-146.25;80.53;52463.50;2070986;28;34956;-72
2023/02/01 01:31:42;;;;;;;18.25;2.63;;;;;;;-146.25;80.68;52431.06;2079426;28;35660;-71
2023/02/01 01:32:44;;;;;;;25.42;3.22;;;;;;;-146.25;81.13;52439.16;2079903;28;20616;-72
2023/02/01 01:33:52;;;;;;;19.25;2.17;;;;;;;-146.25;80.30;52453.34;2079027;28;31374;-72
2023/02/01 01:34:54;;;;;;;26.10;2.53;;;;;;;-146.25;80.40;52461.47;2079273;28;20042;-72
2023/02/01 01:35:55;;;;;;;21.92;2.75;;;;;;;-146.25;80.25;52477.69;2079275;28;20092;-72
2023/02/01 01:37:00;;;;;;;26.70;2.90;;;;;;;-146.25;80.22;52451.31;2079002;28;30215;-71
2023/02/01 01:38:03;;;;;;;25.25;3.35;;;;;;;-146.25;80.66;52487.81;2079557;28;24903;-72
2023/02/01 01:39:05;;;;;;;21.75;2.85;;;;;;;-146.25;80.15;52479.72;2071155;28;20050;-71
2023/02/01 01:40:10;;;;;;;17.58;2.40;;;;;;;-146.25;79.78;52483.78;2071556;28;20065;-72
2023/02/01 01:41:25;;;;;;;25.08;2.83;;;;;;;-146.25;79.67;52445.25;2079269;28;20077;-72
2023/02/01 01:42:29;;;;;;;21.77;2.90;;;;;;;-146.25;80.46;52435.09;2085321;28;20087;-71
2023/02/01 01:43:51;;;;;;;22.98;2.50;;;;;;;-146.25;79.94;52485.81;2079378;28;20038;-71
2023/02/01 01:45:30;;;;;;;21.75;2.55;;;;;;;-146.25;80.60;52437.13;2071113;28;20142;-72
2023/02/01 01:46:38;;;;;;;22.33;2.53;;;;;;;-146.25;80.20;52467.56;2071500;28;20054;-72
2023/02/01 01:48:06;;;;;;;25.65;2.80;;;;;;;-146.25;79.56;52469.56;2079430;28;20046;-72
2023/02/01 01:49:20;;;;;;;26.50;2.42;;;;;;;-146.25;79.85;52433.06;2070894;28;20070;-71
2023/02/01 01:50:37;;;;;;;24.63;2.92;;;;;;;-146.25;79.53;52457.41;2078878;28;20050;-71
2023/02/01 01:51:51;;;;;;;21.77;2.80;;;;;;;-146.25;79.73;52473.63;2079552;28;28814;-71
2023/02/01 01:53:02;;;;;;;17.30;2.38;;;;;;;-146.25;79.70;52443.22;2070839;28;20778;-71
2023/02/01 01:54:46;;;;;;;27.08;2.95;;;;;;;-146.25;79.80;52412.81;2070260;28;27836;-71
2023/02/01 01:55:50;;;;;;;18.30;2.38;;;;;;;-146.25;79.63;52467.56;2068649;28;20902;-71
2023/02/01 01:56:59;;;;;;;25.10;2.72;;;;;;;-146.25;80.02;52420.91;2063174;28;20054;-71
2023/02/01 01:58:10;;;;;;;19.85;2.42;;;;;;;-146.25;79.35;52455.38;2071244;28;20043;-71
2023/02/01 01:59:12;;;;;;;19.60;2.45;;;;;;;-146.25;80.13;52433.06;2072612;28;27148;-72
2023/02/01 02:00:19;;;;;;;26.27;2.83;;;;;;;-146.25;80.43;52481.75;2070468;28;31910;-72
2023/02/01 02:01:21;;;;;;;22.75;2.55;;;;;;;-146.25;79.96;52483.78;2071910;28;20886;-71
2023/02/01 02:02:24;;;;;;;19.98;3.58;;;;;;;-146.25;79.63;52429.03;2078213;28;37740;-71
2023/02/01 02:03:47;;;;;;;21.35;2.65;;;;;;;-146.25;79.55;52481.75;2071288;28;35062;-71
2023/02/01 02:04:49;;;;;;;21.98;2.63;;;;;;;-146.25;79.78;52461.47;2070394;28;28914;-72
2023/02/01 02:05:53;;;;;;;18.65;2.33;;;;;;;-146.25;80.09;52457.41;2063523;28;20042;-71
2023/02/01 02:07:03;;;;;;;23.70;2.63;;;;;;;-146.25;80.01;52445.25;2071617;28;20038;-72
2023/02/01 02:08:04;;;;;;;26.33;3.08;;;;;;;-146.25;79.13;52463.50;2070569;28;30357;-72
2023/02/01 02:09:06;;;;;;;20.17;2.42;;;;;;;-146.25;79.51;52459.44;2070396;28;40658;-71
2023/02/01 02:10:12;;;;;;;19.58;2.40;;;;;;;-146.25;79.91;52445.25;2079760;28;20056;-71
2023/02/01 02:11:16;;;;;;;23.17;2.65;;;;;;;-146.25;79.88;52453.34;2071238;28;22768;-71
2023/02/01 02:12:19;;;;;;;20.63;2.45;;;;;;;-146.25;79.81;52429.03;2072628;28;28153;-71
2023/02/01 02:13:21;;;;;;;21.48;2.72;;;;;;;-146.25;80.14;52429.03;2080960;28;30198;-71
2023/02/01 02:14:24;;;;;;;21.00;2.58;;;;;;;-146.25;79.31;52483.78;2080902;28;37322;-72
2023/02/01 02:15:26;;;;;;;24.55;2.70;;;;;;;-146.25;80.10;52424.97;2081298;28;30100;-71
2023/02/01 02:16:46;;;;;;;24.02;2.47;;;;;;;-146.25;80.47;52461.47;2071870;28;31884;-72
2023/02/01 02:18:00;;;;;;;19.77;2.45;;;;;;;-146.25;80.55;52485.81;2072589;28;36588;-72
2023/02/01 02:19:13;;;;;;;20.58;2.38;;;;;;;-146.25;80.18;52437.13;2072335;28;20883;-71
2023/02/01 02:20:39;;;;;;;18.83;2.53;;;;;;;-146.25;80.40;52449.31;2073695;28;40223;-71
2023/02/01 02:22:10;;;;;;;21.40;2.80;;;;;;;-146.25;80.03;52441.19;2080930;28;22850;-71
2023/02/01 02:24:12;;;;;;;16.73;2.53;;;;;;;-146.25;81.09;52445.25;2080551;28;31097;-71
2023/02/01 02:25:39;;;;;;;24.80;2.40;;;;;;;-146.25;80.78;52443.22;2047686;28;20047;-71
2023/02/01 02:27:32;;;;;;;23.58;2.45;;;;;;;-146.25;81.43;52449.31;2058010;28;28187;-71
2023/02/01 02:29:32;;;;;;;20.50;2.38;;;;;;;-146.25;81.41;52437.13;2044619;28;20095;-71
2023/02/01 02:31:32;;;;;;;18.83;2.20;;;;;;;-146.25;81.16;52471.59;2066251;28;20058;-71
2023/02/01 02:33:22;;;;;;;21.02;2.47;;;;;;;-146.25;81.84;52408.75;2071260;28;20124;-72
2023/02/01 02:34:40;;;;;;;17.63;2.08;;;;;;;-146.25;82.28;52485.81;2064137;28;20154;-72
2023/02/01 02:36:05;;;;;;;21.73;2.50;;;;;;;-146.25;81.87;52441.19;2072066;28;20039;-72
2023/02/01 02:37:22;;;;;;;20.08;2.10;;;;;;;-146.25;81.67;52427.00;2068267;28;34271;-72
2023/02/01 02:38:39;;;;;;;22.52;2.40;;;;;;;-146.25;81.82;52404.69;2074528;28;20413;-72
2023/02/01 02:40:29;;;;;;;18.75;2.65;;;;;;;-146.25;81.94;52449.31;2072356;28;20913;-72
2023/02/01 02:48:21;;;;;;;19.90;2.28;;;;;;;-146.25;83.16;52459.44;2075916;28;24062;-72
2023/02/01 02:54:48;;;;;;;27.63;2.47;;;;;;;-146.25;83.87;52420.91;2068816;28;22263;-70
2023/02/01 02:55:52;;;;;;;21.20;2.15;;;;;;;-146.25;83.18;52473.63;2073357;28;20869;-71
2023/02/01 03:04:11;;;;;;;25.88;2.83;;;;;;;-146.25;85.43;52461.47;2075130;28;20054;-71
2023/02/01 03:05:15;;;;;;;21.75;2.13;;;;;;;-146.25;85.43;52471.59;2094039;28;20857;-72
2023/02/01 03:06:18;;;;;;;21.55;2.70;;;;;;;-146.25;85.80;52471.59;2082154;28;20042;-71
2023/02/01 03:07:49;;;;;;;19.92;2.38;;;;;;;-146.25;86.91;52465.53;2071350;28;20073;-71
2023/02/01 03:08:53;;;;;;;21.25;2.38;;;;;;;-146.25;87.30;52431.06;2075529;28;20049;-71
2023/02/01 03:10:03;;;;;;;18.35;2.58;;;;;;;-146.25;88.14;52439.16;2080834;28;20034;-72
2023/02/01 03:11:12;;;;;;;21.40;2.53;;;;;;;-146.25;88.06;52459.44;2088400;28;20045;-72
2023/02/01 03:13:58;;;;;;;21.25;2.40;;;;;;;-146.25;89.73;52481.75;2080000;28;20889;-72
2023/02/01 03:15:12;;;;;;;20.50;2.40;;;;;;;-146.25;89.75;52461.47;2083588;28;20751;-72
2023/02/01 03:16:27;;;;;;;16.63;1.83;;;;;;;-146.25;89.98;52433.06;2080230;28;20119;-73
2023/02/01 03:17:39;;;;;;;19.40;2.40;;;;;;;-146.25;90.69;52451.31;2066255;28;20050;-73
2023/02/01 03:19:18;;;;;;;17.83;1.55;;;;;;;-146.25;91.13;52453.34;2075620;28;20030;-72
2023/02/01 03:20:21;;;;;;;25.10;2.45;;;;;;;-146.25;91.41;52469.56;2059582;28;20762;-71
2023/02/01 03:21:33;;;;;;;21.70;2.25;;;;;;;-146.25;91.49;52465.53;2071939;28;20038;-73
2023/02/01 03:22:38;;;;;;;18.80;1.95;;;;;;;-146.25;90.86;52441.19;2073134;28;20100;-72
2023/02/01 03:23:42;;;;;;;19.40;2.30;;;;;;;-146.25;91.59;52439.16;2081836;28;20108;-71
2023/02/01 03:25:13;;;;;;;27.50;3.08;;;;;;;-146.25;92.08;52445.25;2080182;28;20132;-72
2023/02/01 03:26:21;;;;;;;19.23;2.30;;;;;;;-146.25;92.64;52437.13;2080088;28;20050;-72
2023/02/01 03:27:50;;;;;;;15.07;1.95;;;;;;;-146.25;92.16;52461.47;2076470;28;20038;-72
2023/02/01 03:29:02;;;;;;;23.13;2.75;;;;;;;-146.25;91.55;52487.81;2075419;28;20152;-72
2023/02/01 03:30:20;;;;;;;17.75;2.22;;;;;;;-146.25;92.52;52491.88;2073338;28;20098;-72
2023/02/01 03:31:28;;;;;;;22.48;2.22;;;;;;;-146.25;92.49;52457.41;2081741;28;20073;-72
2023/02/01 03:32:58;;;;;;;21.92;1.95;;;;;;;-146.25;93.05;52512.16;2100945;22;20081;-74
2023/02/01 03:33:55;;;;;;;18.60;2.05;;;;;;;-146.25;93.12;52461.47;2080328;28;20042;-74
2023/02/01 03:34:57;;;;;;;23.20;2.25;;;;;;;-146.25;93.44;52453.34;2080231;28;21729;-74
2023/02/01 03:36:29;;;;;;;21.80;2.58;;;;;;;-146.25;93.71;52433.06;2079932;28;20119;-75
2023/02/01 03:37:31;;;;;;;17.45;2.30;;;;;;;-146.25;93.92;52455.38;2080138;28;20030;-75
2023/02/01 03:38:33;;;;;;;24.25;2.40;;;;;;;-146.25;93.99;52461.47;2079890;28;20050;-75
2023/02/01 03:40:00;;;;;;;22.58;2.50;;;;;;;-146.25;94.29;52416.84;2079916;28;20038;-75
2023/02/01 03:41:22;;;;;;;23.83;2.38;;;;;;;-146.25;94.39;52461.47;2071816;28;20038;-75
2023/02/01 03:42:48;;;;;;;19.77;2.17;;;;;;;-146.25;93.75;52457.41;2074411;28;20147;-75
2023/02/01 03:44:00;;;;;;;20.00;2.50;;;;;;;-146.25;94.37;52396.59;2077351;28;20054;-75
2023/02/01 03:45:10;;;;;;;23.65;2.55;;;;;;;-146.25;94.17;52441.19;2080085;28;20038;-75
2023/02/01 03:46:21;;;;;;;;;;;;;;;-146.25;94.69;52457.41;2080800;28;20041;-75
2023/02/01 03:47:29;;;;;;;20.52;2.20;;;;;;;-146.25;94.52;52467.56;2080059;28;19995;-75
2023/02/01 03:48:32;;;;;;;18.98;2.13;;;;;;;-146.25;95.14;52443.22;2080053;28;20042;-75
2023/02/01 03:49:45;;;;;;;23.08;2.47;;;;;;;-146.25;94.81;52487.81;2071718;28;20164;-75
2023/02/01 03:50:53;;;;;;;17.98;2.15;;;;;;;-146.25;94.92;52481.75;2073246;28;20053;-75
2023/02/01 03:51:58;;;;;;;26.08;3.28;;;;;;;-146.25;95.39;52441.19;2079770;28;20663;-75
2023/02/01 03:53:16;;;;;;;19.90;2.55;;;;;;;-146.25;95.39;52463.50;2079151;28;20163;-75
2023/02/01 03:54:20;;;;;;;23.45;2.92;;;;;;;-146.25;96.00;52457.41;2079554;28;20050;-75
2023/02/01 03:55:27;;;;;;;17.58;2.25;;;;;;;-146.25;96.28;52453.34;2071826;28;20951;-75
2023/02/01 03:56:31;;;;;;;17.20;2.33;;;;;;;-146.25;95.85;52418.88;2064190;28;20836;-75
2023/02/01 03:57:39;;;;;;;22.13;2.55;;;;;;;-146.25;96.13;52489.84;2072485;28;20104;-75
2023/02/01 03:58:41;;;;;;;23.92;2.78;;;;;;;-146.25;96.33;52465.53;2080125;28;20213;-75
2023/02/01 03:59:45;;;;;;;21.98;2.95;;;;;;;-146.25;96.30;52459.44;2078948;28;20050;-75
2023/02/01 04:00:59;;;;;;;20.17;2.42;;;;;;;-146.25;96.05;52435.09;2080012;28;20061;-75
2023/02/01 04:02:03;;;;;;;23.65;2.72;;;;;;;-146.25;95.85;52449.31;2079840;28;20926;-75
2023/02/01 04:03:07;;;;;;;25.38;2.97;;;;;;;-146.25;95.69;52465.53;2074316;28;20054;-75
2023/02/01 04:04:19;;;;;;;18.05;2.15;;;;;;;-146.25;96.09;52489.84;2072763;28;20050;-75
2023/02/01 04:05:24;;;;;;;29.15;2.85;;;;;;;-146.25;95.56;52469.56;2079941;28;20042;-75
2023/02/01 04:06:34;;;;;;;21.15;2.95;;;;;;;-146.25;95.29;52461.47;2079941;28;20054;-74
2023/02/01 04:07:37;;;;;;;22.23;2.95;;;;;;;-146.25;95.86;52463.50;2086504;28;20895;-74
2023/02/01 04:08:39;;;;;;;20.42;2.22;;;;;;;-146.25;95.55;52420.91;2071965;28;36439;-74
2023/02/01 04:09:41;;;;;;;19.42;3.05;;;;;;;-146.25;95.25;52481.75;2072751;28;20035;-75
2023/02/01 04:10:45;;;;;;;21.27;3.00;;;;;;;-146.25;95.89;52508.09;2071748;28;40120;-75
2023/02/01 04:11:47;;;;;;;19.25;2.70;;;;;;;-146.25;95.84;52461.47;2072092;28;20586;-74
2023/02/01 04:12:48;;;;;;;22.83;2.72;;;;;;;-146.25;95.61;52455.38;2071456;28;41491;-75
2023/02/01 04:13:50;;;;;;;26.13;2.65;;;;;;;-146.25;95.64;52497.97;2079261;28;39835;-75
2023/02/01 04:14:52;;;;;;;24.08;3.15;;;;;;;-146.25;95.41;52467.56;2079867;28;22433;-74
2023/02/01 04:15:53;;;;;;;22.05;2.63;;;;;;;-146.25;95.21;52420.91;2070596;28;41044;-74
2023/02/01 04:16:55;;;;;;;25.83;3.03;;;;;;;-146.25;95.08;52487.81;2072150;28;38147;-74
2023/02/01 04:17:57;;;;;;;17.95;2.17;;;;;;;-146.25;94.93;52459.44;2079781;28;20049;-75
2023/02/01 04:18:59;;;;;;;24.95;2.65;;;;;;;-146.25;94.90;52447.28;2079245;28;35706;-74
2023/02/01 04:20:04;;;;;;;19.70;2.58;;;;;;;-146.25;95.51;52508.09;2071746;28;37264;-74
2023/02/01 04:21:06;;;;;;;24.58;2.90;;;;;;;-146.25;95.34;52461.47;2071838;28;20039;-75
2023/02/01 04:22:12;;;;;;;22.05;2.83;;;;;;;-146.25;94.90;52451.31;2071485;28;20050;-74
2023/02/01 04:23:15;;;;;;;23.90;2.60;;;;;;;-146.25;95.31;52457.41;2071658;28;36887;-74
2023/02/01 04:24:17;;;;;;;22.30;2.80;;;;;;;-146.25;95.67;52477.69;2071687;28;36035;-75
2023/02/01 04:25:18;;;;;;;18.73;2.55;;;;;;;-146.25;95.21;52457.41;2079012;28;32629;-74
2023/02/01 04:26:21;;;;;;;17.23;2.83;;;;;;;-146.25;95.31;52489.84;2080085;28;21069;-74
2023/02/01 04:27:26;;;;;;;22.27;2.55;;;;;;;-146.25;95.60;52449.31;2079337;28;39947;-74
2023/02/01 04:28:28;;;;;;;19.75;2.13;;;;;;;-146.25;94.99;52493.91;2079108;28;36610;-74
2023/02/01 04:29:32;;;;;;;24.08;2.75;;;;;;;-146.25;95.36;52471.59;2072590;28;20042;-74
2023/02/01 04:30:33;;;;;;;25.13;2.92;;;;;;;-146.25;95.02;52451.31;2071188;28;33788;-74
2023/02/01 04:31:36;;;;;;;26.35;2.72;;;;;;;-146.25;95.02;52469.56;2079042;28;33574;-74
2023/02/01 04:32:40;;;;;;;23.02;3.22;;;;;;;-146.25;95.41;52465.53;2087235;28;35225;-76
2023/02/01 04:33:42;;;;;;;19.33;2.17;;;;;;;-146.25;95.14;52461.47;2088015;28;20910;-76
2023/02/01 04:34:45;;;;;;;19.15;2.60;;;;;;;-146.25;94.91;52420.91;2079048;28;34971;-74
2023/02/01 04:35:47;;;;;;;23.92;2.97;;;;;;;-146.25;94.56;52441.19;2080090;28;33376;-76
2023/02/01 04:36:49;;;;;;;25.38;2.88;;;;;;;-146.25;94.74;52493.91;2079446;28;20857;-74
2023/02/01 04:37:51;;;;;;;22.65;2.45;;;;;;;-146.25;94.61;52443.22;2079402;28;38374;-75
2023/02/01 04:38:52;;;;;;;22.50;3.13;;;;;;;-146.25;94.67;52497.97;2087563;28;32916;-75
2023/02/01 04:39:55;;;;;;;22.60;2.67;;;;;;;-146.25;94.82;52469.56;2087788;28;20038;-74
2023/02/01 04:40:59;;;;;;;27.23;2.78;;;;;;;-146.25;95.17;52439.16;2080011;28;37857;-75
2023/02/01 04:42:01;;;;;;;23.55;3.05;;;;;;;-146.25;94.95;52447.28;2079944;28;36157;-75
2023/02/01 04:43:03;;;;;;;27.88;3.08;;;;;;;-146.25;95.12;52479.72;2087669;28;29147;-74
2023/02/01 04:44:05;;;;;;;23.60;2.90;;;;;;;-146.25;95.51;52473.63;2087443;28;34905;-75
2023/02/01 04:45:08;;;;;;;19.95;3.03;;;;;;;-146.25;95.13;52431.06;2079847;28;34045;-74
2023/02/01 04:46:10;;;;;;;23.55;2.88;;;;;;;-146.25;95.28;52481.75;2079767;28;35577;-76
2023/02/01 04:47:12;;;;;;;25.30;2.50;;;;;;;-146.25;95.06;52479.72;2079870;28;39831;-76
2023/02/01 04:48:14;;;;;;;22.40;2.40;;;;;;;-146.25;95.15;52473.63;2079669;28;37766;-75
2023/02/01 04:49:16;;;;;;;22.95;2.85;;;;;;;-146.25;94.42;52447.28;2087423;28;33828;-76
2023/02/01 04:50:18;;;;;;;18.98;2.33;;;;;;;-146.25;94.03;52471.59;2087831;28;20042;-75
2023/02/01 04:51:20;;;;;;;22.10;3.22;;;;;;;-146.25;94.36;52437.13;2078605;28;38239;-76
2023/02/01 04:52:23;;;;;;;23.67;3.38;;;;;;;-146.25;94.71;52481.75;2079800;28;36455;-76
2023/02/01 04:53:26;;;;;;;22.77;2.67;;;;;;;-146.25;95.14;52447.28;2080144;28;20648;-76
2023/02/01 04:54:28;;;;;;;20.80;2.85;;;;;;;-146.25;95.57;52449.31;2079838;28;37693;-76
2023/02/01 04:55:32;;;;;;;22.20;3.20;;;;;;;-146.25;95.00;52493.91;2080403;28;20050;-75
2023/02/01 04:56:34;;;;;;;29.25;3.25;;;;;;;-146.25;95.40;52481.75;2079830;28;38602;-77
2023/02/01 04:57:38;;;;;;;24.67;2.92;;;;;;;-146.25;95.64;52473.63;2079940;28;37520;-76
2023/02/01 04:58:40;;;;;;;19.33;2.17;;;;;;;-146.25;95.28;52481.75;2080571;28;20811;-76
2023/02/01 04:59:41;;;;;;;18.33;2.25;;;;;;;-146.25;94.54;52491.88;2079994;28;39922;-76
2023/02/01 05:00:45;;;;;;;19.42;2.00;;;;;;;-146.25;94.79;52479.72;2080032;28;34974;-76
2023/02/01 05:01:47;;;;;;;22.10;2.38;;;;;;;-146.25;94.62;52465.53;2079443;28;37282;-76
2023/02/01 05:02:49;;;;;;;15.75;2.05;;;;;;;-146.25;94.36;52445.25;2087553;28;35018;-76
2023/02/01 05:03:51;;;;;;;19.00;2.15;;;;;;;-146.25;94.40;52479.72;2087514;28;24667;-76
2023/02/01 05:04:54;;;;;;;19.83;2.42;;;;;;;-146.25;94.10;52431.06;2079869;28;37767;-76
2023/02/01 05:05:55;;;;;;;20.25;2.10;;;;;;;-146.25;94.38;52465.53;2079558;28;37897;-76
2023/02/01 05:06:57;;;;;;;13.13;1.63;;;;;;;-146.25;93.72;52483.78;2079584;28;37284;-76
2023/02/01 05:07:59;;;;;;;12.98;1.65;;;;;;;-146.25;94.53;52459.44;2080087;28;33413;-76
2023/02/01 05:09:00;;;;;;;20.85;2.17;;;;;;;-146.25;93.63;52445.25;2079874;28;40472;-75
2023/02/01 05:10:05;;;;;;;15.88;2.25;;;;;;;-146.25;94.54;52485.81;2080163;28;23944;-76
2023/02/01 05:13:47;;;;;;;17.52;2.08;;;;;;;-146.25;94.57;52469.56;2078914;28;41600;-76
2023/02/01 05:13:49;;;;;;;14.38;1.98;;;;;;;-146.25;94.18;52477.69;2079773;28;39141;-75
2023/02/01 05:14:53;;;;;;;16.98;2.53;;;;;;;-146.25;94.27;52410.78;2080141;28;36680;-75
2023/02/01 05:15:54;;;;;;;16.85;1.95;;;;;;;-146.25;94.56;52493.91;2079045;28;37791;-75
2023/02/01 05:16:56;;;;;;;14.98;1.70;;;;;;;-146.25;94.71;52424.97;2079855;28;37286;-75
2023/02/01 05:17:58;;;;;;;12.98;1.52;;;;;;;-146.25;94.51;52455.38;2080345;28;20042;-75
2023/02/01 05:18:59;;;;;;;19.92;2.30;;;;;;;-146.25;94.76;52491.88;2079048;28;40150;-75
2023/02/01 05:20:03;;;;;;;11.38;1.92;;;;;;;-146.25;94.01;52469.56;2079160;28;37359;-75
2023/02/01 05:21:05;;;;;;;17.33;1.90;;;;;;;-146.25;94.95;52475.66;2079481;28;34229;-75
2023/02/01 05:22:07;;;;;;;16.02;1.58;;;;;;;-146.25;94.27;52437.13;2079501;28;35795;-75
2023/02/01 05:23:09;;;;;;;17.77;2.15;;;;;;;-146.25;94.67;52443.22;2079636;28;33238;-75
2023/02/01 05:24:12;;;;;;;19.73;1.80;;;;;;;-146.25;95.02;52449.31;2087035;28;34535;-75
2023/02/01 05:25:14;;;;;;;16.13;2.15;;;;;;;-146.25;94.92;52449.31;2086839;28;37652;-75
2023/02/01 05:26:16;;;;;;;10.32;1.40;;;;;;;-146.25;95.27;52491.88;2079699;28;38036;-76
2023/02/01 05:27:17;;;;;;;20.67;2.20;;;;;;;-146.25;95.41;52493.91;2080006;28;33866;-76